Terminal Aerodrome Forecast
Issued by NWS

Home | Current Version | Previous Version | Text Only | Print | Product List | Glossary On
Versions: 1 2 3 4 5 6 7 8 9 10 11 12 13
000
FTUS43 KDTX 250500
TAFMBS
TAF
KMBS 250520Z 2506/2606 20004KT P6SM FEW250
     FM251400 23008KT P6SM SCT050 BKN200
     FM260300 20004KT P6SM OVC150=

USA.gov is the U.S. government's official web portal to all federal, state and local government web resources and services.